Tiempo atmosférico en la estación meteorológica de Vallehermoso, Dama, Santa Cruz de Tenerife (190 m.)



Fecha
DESCASC
Temp. máxima en grados centígrados (hora)
DESCASC
Temp. mínima en grados centígrados (hora)
DESCASC
Temp. media en grados centígrados
DESCASC
Racha de viento máxima en m/sg (hora)
DESCASC
Velocidad máxima media en intervalos de 10 minutos(hora)
DESCASC
Precipitaciones diarias en mm
DESCASC
Precipitaciones de 00:00 a 06:00 en mm
DESCASC
Precipitaciones de 06:00 a 12:00 en mm
DESCASC
Precipitaciones de 12:00 a 18:00 en mm
DESCASC
Precipitaciones de 18:00 a 24:00 en mm
DESCASC
10-07-2020 28.2 (16:00) 19.8 (23:30) 24 9.44 (04:40) 4.44 (04:40) 0 0 0 0 0
09-07-2020 28.1 (15:20) 21.1 (07:50) 24.6 4.44 (13:50) 3.06 (13:50) 0 0 0 0 0
08-07-2020 29.2 (15:50) 20.3 (07:20) 24.8 5 (16:40) 3.06 (16:40) 0 0 0 0 0
07-07-2020 28.1 (17:00) 21.2 (06:50) 24.7 9.17 (13:10) 6.11 (13:30) 0 0 0 0 0
06-07-2020 31.1 (15:50) 20.3 (00:00) 25.7 7.5 (17:10) 4.44 (17:10) 0 0 0 0 0
05-07-2020 27.2 (16:20) 18.5 (05:30) 22.9 4.72 (14:40) 3.33 (13:30) 0 0 0 0 0
04-07-2020 26 (14:20) 19.3 (07:20) 22.6 7.5 (15:50) 5 (16:00) 0 0 0 0 0
03-07-2020 28.5 (15:50) 19.5 (06:30) 24 7.22 (18:00) 4.72 (18:30) 0 0 0 0 0
02-07-2020 28 (14:20) 19.5 (00:00) 23.8 5.83 (05:30) 3.89 (05:30) 0 0 0 0 0
01-07-2020 28.2 (14:20) 18.9 (00:00) 23.6 6.94 (18:00) 4.44 (18:00) 0 0 0 0 0
30-06-2020 28.3 (14:50) 19.7 (00:00) 24 5.28 (16:30) 3.06 (13:50) 0 0 0 0 0
29-06-2020 27.3 (16:10) 18.6 (00:00) 22.9 4.72 (14:10) 2.78 (15:50) 0 0 0 0 0
28-06-2020 27.2 (16:40) 18.3 (00:00) 22.8 5.83 (05:40) 3.33 (11:30) 0 0 0 0 0
27-06-2020 27.6 (13:50) 17.6 (00:00) 22.6 5 (18:30) 3.33 (13:10) 0 0 0 0 0
26-06-2020 28.9 (15:30) 18 (00:00) 23.4 6.11 (17:00) 3.89 (16:20) 0 0 0 0 0
25-06-2020 28.7 (15:10) 17.6 (00:00) 23.2 6.11 (14:40) 3.61 (13:20) 0 0 0 0 0
24-06-2020 27.8 (15:30) 17.6 (00:00) 22.7 5 (16:50) 3.33 (17:10) 0 0 0 0 0
23-06-2020 26.8 (16:00) 16.5 (00:00) 21.6 4.72 (12:50) 2.78 (12:40) 0 0 0 0 0
22-06-2020 27 (16:00) 16.7 (00:00) 21.9 3.89 (14:30) 2.5 (17:40) 0 0 0 0 0
21-06-2020 26.8 (17:10) 17.9 (00:00) 22.3 4.72 (16:30) 2.78 (16:30) 0 0 0 0 0
20-06-2020 27.9 (15:10) 17.8 (00:00) 22.8 6.11 (16:20) 3.89 (16:20) 0 0 0 0 0
19-06-2020 27.2 (11:40) 17.8 (00:00) 22.5 7.78 (12:20) 4.17 (12:50) 0 0 0 0 0
18-06-2020 29.9 (13:40) 20 (06:10) 24.9 9.72 (19:40) 5 (19:40) 0 0 0 0 0
17-06-2020 28.4 (00:40) 21.8 (00:00) 25.1 13.33 (00:10) 6.94 (17:50) 0.4 0.4 0 0 0
16-06-2020 30.4 (16:20) 20.7 (00:00) 25.6 17.22 (22:40) 10 (22:50) 0 0 0 0 0
15-06-2020 28.5 (17:00) 20.4 (00:00) 24.4 8.33 (02:20) 4.17 (02:20) 2.6 2.6 0 0 0

Gráficas

Temp. máximas Temp. mínimas Temp. medias Precipitaciones Rachas de viento máximas Velocidades máximas media en intervalos de 10 minutos

Datos horarios

Fecha y hora oficial Temperatura (ºC) Velocidad del viento (km/h) Dirección del viento Racha (km/h) Dirección de racha Precipitación (mm) Presión (hPa) Tendencia (hPa) Humedad (%)
2020-07-14 23:00:00 21.5 4 Este 14 Sudeste 0 -- -- 75
2020-07-14 22:00:00 21.7 8 Sur 16 Sudeste 0 -- -- 75
2020-07-14 21:00:00 22 5 Sudeste 14 Sur 0 -- -- 78
2020-07-14 20:00:00 23 7 Sur 15 Sur 0 -- -- 78
2020-07-14 19:00:00 23.7 9 Sur 16 Sudoeste 0 -- -- 74
2020-07-14 18:00:00 25.3 8 Sur 15 Sudoeste 0 -- -- 67
2020-07-14 17:00:00 26.3 8 Sudoeste 13 Sudoeste 0 -- -- 64
2020-07-14 16:00:00 26.4 8 Sudoeste 18 Sur 0 -- -- 63
2020-07-14 15:00:00 25.4 12 Sur 17 Sur 0 -- -- 65
2020-07-14 14:00:00 25.8 10 Sur 16 Sur 0 -- -- 63
2020-07-14 13:00:00 25.7 9 Sur 15 Sur 0 -- -- 59
2020-07-14 12:00:00 24.8 7 Sur 13 Sur 0 -- -- 68
2020-07-14 11:00:00 23.9 6 Sur 17 Oeste 0 -- -- 70
2020-07-14 10:00:00 23.3 6 Sudoeste 11 Oeste 0 -- -- 74
2020-07-14 09:00:00 20.2 6 Norte 12 Oeste 0 -- -- 84
2020-07-14 08:00:00 18.1 3 Nordeste 15 Sudeste 0 -- -- 85
2020-07-14 07:00:00 18.3 8 Sudeste 15 Sudeste 0 -- -- 91
2020-07-14 06:00:00 17.4 0 Calma 7 Sudeste 0 -- -- 91
2020-07-14 05:00:00 18.1 6 Sudeste 11 Sudeste 0 -- -- 90
2020-07-14 04:00:00 18.1 3 Nordeste 10 Sudeste 0 -- -- 90
2020-07-14 03:00:00 18.7 7 Este 10 Este 0 -- -- 92
2020-07-14 02:00:00 19 0 Calma 4 Oeste 0 -- -- 90
2020-07-14 01:00:00 19.7 3 Sudeste 7 Sudeste 0 -- -- 89
2020-07-14 00:00:00 20.4 0 Calma 14 Sudeste 0 -- -- 87
2020-07-13 23:00:00 20.7 6 Sudeste 11 Sudeste 0 -- -- 89
2020-07-13 22:00:00 21.1 0 Calma 6 Oeste 0 -- -- 86
2020-07-13 21:00:00 21.9 4 Oeste 9 Sur 0 -- -- 83
2020-07-13 20:00:00 22.6 7 Sur 13 Sur 0 -- -- 81
2020-07-13 19:00:00 23.8 8 Sur 13 Sur 0 -- -- 77
2020-07-13 18:00:00 25.4 8 Sudoeste 16 Oeste 0 -- -- 73
2020-07-13 17:00:00 26.5 10 Sudoeste 14 Sudoeste 0 -- -- 68
2020-07-13 16:00:00 27.2 8 Sudoeste 14 Oeste 0 -- -- 67
2020-07-13 15:00:00 27.8 9 Sudoeste 18 Oeste 0 -- -- 67
2020-07-13 14:00:00 26.7 8 Oeste 14 Sudoeste 0 -- -- 68
2020-07-13 13:00:00 25.6 9 Sur 15 Sur 0 -- -- 73
2020-07-13 12:00:00 25.3 7 Sudoeste 12 Sudoeste 0 -- -- 75
2020-07-13 11:00:00 23.8 6 Sudoeste 16 Sudoeste 0 -- -- 80
2020-07-13 10:00:00 22.8 9 Sur 14 Sudeste 0 -- -- 84
2020-07-13 09:00:00 20.6 3 Sur 7 Este 0 -- -- 91
2020-07-13 08:00:00 18.6 2 Este 5 Nordeste 0 -- -- 94
2020-07-13 07:00:00 18.6 0 Calma 4 Este 0 -- -- 94
2020-07-13 06:00:00 18.7 0 Calma 4 Este 0 -- -- 93
2020-07-13 05:00:00 19 3 Sudeste 5 Sudeste 0 -- -- 92
2020-07-13 04:00:00 19.2 0 Calma 6 Nordeste 0 -- -- 91
2020-07-13 03:00:00 19.7 3 Sudeste 6 Sudeste 0 -- -- 91
2020-07-13 02:00:00 20.5 3 Sudeste 9 Sur 0 -- -- 91
2020-07-13 01:00:00 21 3 Sudeste 6 Sudeste 0 -- -- 91
2020-07-13 00:00:00 21.8 3 Oeste 8 Oeste 0 -- -- 90
2020-07-12 23:00:00 21.5 0 Calma 12 Sur 0 -- -- 91
2020-07-12 22:00:00 21.7 4 Sudeste 14 Sur 0 -- -- 89
2020-07-12 21:00:00 22.4 3 Sur 19 Sur 0 -- -- 85
2020-07-12 20:00:00 23.2 6 Sur 14 Sur 0 -- -- 82
2020-07-12 19:00:00 24.3 6 Sur 14 Sudoeste 0 -- -- 74
2020-07-12 18:00:00 25.4 9 Sur 18 Sur 0 -- -- 71
2020-07-12 17:00:00 25.8 12 Sur 18 Sur 0 -- -- 70
2020-07-12 16:00:00 25.6 14 Sur 19 Sur 0 -- -- 74
2020-07-12 15:00:00 26.3 9 Sur 17 Sur 0 -- -- 69
2020-07-12 14:00:00 26.3 10 Sur 15 Sur 0 -- -- 62
2020-07-12 13:00:00 25.6 8 Sur 15 Sur 0 -- -- 67
2020-07-12 12:00:00 25.8 9 Sudoeste 12 Sudoeste 0 -- -- 69
2020-07-12 11:00:00 25.4 4 Sudoeste 8 Sur 0 -- -- 65
2020-07-12 10:00:00 24.2 5 Oeste 8 Norte 0 -- -- 72
2020-07-12 09:00:00 20.2 0 Calma 5 Sudeste 0 -- -- 87
2020-07-12 08:00:00 18 5 Nordeste 8 Nordeste 0 -- -- 88
2020-07-12 07:00:00 18.6 5 Sudeste 12 Sudeste 0 -- -- 89
2020-07-12 06:00:00 18.2 3 Nordeste 6 Norte 0 -- -- 88
2020-07-12 05:00:00 18.8 3 Sudeste 10 Este 0 -- -- 85
2020-07-12 04:00:00 19.2 9 Este 13 Este 0 -- -- 78
2020-07-12 03:00:00 18.8 3 Nordeste 9 Sudeste 0 -- -- 85
2020-07-12 02:00:00 19.2 0 Calma 8 Nordeste 0 -- -- 86
2020-07-12 01:00:00 19.7 0 Calma 4 Sur 0 -- -- 86
2020-07-12 00:00:00 20.4 0 Calma 6 Sur 0 -- -- 85
2020-07-11 23:00:00 21.3 2 Sudeste 17 Sudeste 0 -- -- 80
2020-07-11 22:00:00 21.4 9 Sudeste 15 Sudeste 0 -- -- 81
2020-07-11 21:00:00 22.1 4 Sur 8 Sur 0 -- -- 81
2020-07-11 20:00:00 23.3 5 Sudoeste 10 Sudoeste 0 -- -- 78
2020-07-11 19:00:00 23.9 9 Sur 22 Sur 0 -- -- 77
2020-07-11 18:00:00 25.3 14 Sur 25 Sur 0 -- -- 68
2020-07-11 17:00:00 26.6 16 Sur 27 Sudeste 0 -- -- 61
2020-07-11 16:00:00 26.3 8 Sur 20 Sur 0 -- -- 62
2020-07-11 15:00:00 27.2 8 Sudoeste 15 Sudoeste 0 -- -- 63
2020-07-11 14:00:00 26.6 8 Sudoeste 13 Sur 0 -- -- 67
2020-07-11 13:00:00 25.5 9 Sur 21 Sur 0 -- -- 70
2020-07-11 12:00:00 25.2 11 Sur 22 Sur 0 -- -- 67
2020-07-11 11:00:00 24.4 7 Sur 15 Sur 0 -- -- 74
2020-07-11 10:00:00 24 4 Sur 14 Sudoeste 0 -- -- 72
2020-07-11 09:00:00 21.6 2 Norte 16 Sudeste 0 -- -- 79
2020-07-11 08:00:00 19.8 11 Sudeste 18 Sudeste 0 -- -- 81
2020-07-11 07:00:00 18.1 6 Sudeste 9 Sudeste 0 -- -- 89
2020-07-11 06:00:00 18.5 5 Norte 8 Nordeste 0 -- -- 92
2020-07-11 05:00:00 18.9 4 Sudeste 13 Sudeste 0 -- -- 87
2020-07-11 04:00:00 19 8 Sudeste 13 Sur 0 -- -- 90
2020-07-11 03:00:00 19.1 8 Este 12 Este 0 -- -- 91
2020-07-11 02:00:00 19.2 0 Calma 4 Este 0 -- -- 88
2020-07-11 01:00:00 20.1 3 Sudeste 13 Sur 0 -- -- 89
2020-07-11 00:00:00 19.8 5 Sudeste 9 Sur 0 -- -- 87
2020-07-10 23:00:00 20.1 4 Sudeste 6 Sudeste 0 -- -- 84
2020-07-10 22:00:00 20.7 0 Calma 5 Sur 0 -- -- 82
2020-07-10 21:00:00 21.6 3 Sur 9 Sur 0 -- -- 83
2020-07-10 20:00:00 22.4 5 Sur 12 Sur 0 -- -- 80
2020-07-10 19:00:00 23.3 9 Sur 17 Sur 0 -- -- 76
2020-07-10 18:00:00 24.3 13 Sur 24 Sur 0 -- -- 71
2020-07-10 17:00:00 25.2 14 Sur 21 Sur 0 -- -- 70
2020-07-10 16:00:00 28.2 10 Oeste 18 Noroeste 0 -- -- 61
2020-07-10 15:00:00 25.8 8 Sudoeste 19 Sur 0 -- -- 71
2020-07-10 14:00:00 25.8 10 Sur 22 Sudeste 0 -- -- 67
2020-07-10 13:00:00 26.6 14 Sur 24 Sudeste 0 -- -- 55
2020-07-10 12:00:00 25.5 9 Sur 16 Sur 0 -- -- 63
2020-07-10 11:00:00 25.7 6 Sur 13 Noroeste 0 -- -- 63
2020-07-10 10:00:00 24.8 9 Noroeste 20 Sudeste 0 -- -- 69
2020-07-10 09:00:00 21.7 12 Sudeste 24 Sudeste 0 -- -- 77
2020-07-10 08:00:00 20.4 11 Sudeste 16 Sudeste 0 -- -- 87
2020-07-10 07:00:00 20.6 6 Norte 15 Noroeste 0 -- -- 88
2020-07-10 06:00:00 20.6 3 Noroeste 22 Sur 0 -- -- 90
2020-07-10 05:00:00 20.4 14 Sudeste 34 Sudeste 0 -- -- 86
2020-07-10 04:00:00 20.5 10 Sudeste 18 Sudeste 0 -- -- 86
2020-07-10 03:00:00 20.5 8 Sudeste 17 Sudeste 0 -- -- 89
2020-07-10 02:00:00 20.6 3 Sur 9 Sudoeste 0 -- -- 87
2020-07-10 01:00:00 21.3 5 Sur 15 Sur 0 -- -- 85
2020-07-10 00:00:00 21.6 3 Sudeste 14 Sudeste 0 -- -- 79
2020-07-09 23:00:00 22.2 9 Sudeste 14 Sudeste 0 -- -- 77
2020-07-09 22:00:00 22.5 6 Sudeste 10 Sudeste 0 -- -- 73
2020-07-09 21:00:00 23.2 3 Sur 10 Sur 0 -- -- 72
2020-07-09 20:00:00 24.2 7 Sur 16 Sudeste 0 -- -- 69
2020-07-09 19:00:00 25.8 8 Sur 14 Sur 0 -- -- 62
2020-07-09 18:00:00 26.4 10 Sur 16 Sur 0 -- -- 58
2020-07-09 17:00:00 27.4 9 Sur 14 Sur 0 -- -- 63
2020-07-09 16:00:00 28.1 8 Sudoeste 13 Sur 0 -- -- 58
2020-07-09 15:00:00 27.7 8 Sur 15 Sur 0 -- -- 57
2020-07-09 14:00:00 27.6 11 Sur 16 Sur 0 -- -- 54
2020-07-09 13:00:00 27.5 8 Sur 12 Sudoeste 0 -- -- 58
2020-07-09 12:00:00 26.3 9 Sur 14 Sur 0 -- -- 68
2020-07-09 11:00:00 27.2 4 Oeste 13 Sur 0 -- -- 67
2020-07-09 10:00:00 25.7 7 Sur 14 Sur 0 -- -- 69
2020-07-09 09:00:00 22.6 3 Sur 8 Norte 0 -- -- 82
2020-07-09 08:00:00 21.2 6 Nordeste 12 Norte 0 -- -- 83
2020-07-09 07:00:00 21.2 8 Norte 10 Norte 0 -- -- 79
2020-07-09 06:00:00 21.9 2 Sur 11 Sudeste 0 -- -- 64
2020-07-09 05:00:00 21.6 5 Este 7 Este 0 -- -- 67
2020-07-09 04:00:00 21.2 4 Nordeste 7 Nordeste 0 -- -- 79
2020-07-09 03:00:00 21.8 4 Sudeste 11 Sudeste 0 -- -- 77
2020-07-09 02:00:00 22.1 7 Sudeste 12 Sudeste 0 -- -- 83
2020-07-09 01:00:00 22.1 5 Nordeste 10 Nordeste 0 -- -- 90
2020-07-09 00:00:00 22.2 5 Sudeste 8 Sur 0 -- -- 89
2020-07-08 23:00:00 22.6 3 Noroeste 8 Norte 0 -- -- 86
2020-07-08 22:00:00 23.1 4 Norte 8 Norte 0 -- -- 83
2020-07-08 21:00:00 23.8 3 Sudeste 8 Sudeste 0 -- -- 80
2020-07-08 20:00:00 24.9 4 Sur 7 Sur 0 -- -- 75
2020-07-08 19:00:00 26 5 Oeste 10 Sudoeste 0 -- -- 70
2020-07-08 18:00:00 26.1 8 Sur 14 Sur 0 -- -- 71
2020-07-08 17:00:00 26.7 9 Sur 18 Sur 0 -- -- 71
2020-07-08 16:00:00 29 8 Sur 13 Sur 0 -- -- 61
2020-07-08 15:00:00 28.2 9 Sur 14 Sur 0 -- -- 60
2020-07-08 14:00:00 28.1 7 Sur 11 Sur 0 -- -- 57
2020-07-08 13:00:00 28.5 8 Sudoeste 11 Sur 0 -- -- 56
2020-07-08 12:00:00 27.9 6 Sur 9 Sudoeste 0 -- -- 63
2020-07-08 11:00:00 25.9 3 Sudoeste 8 Sudoeste 0 -- -- 74
2020-07-08 10:00:00 24.1 5 Sur 7 Sudoeste 0 -- -- 79
2020-07-08 09:00:00 22.1 4 Sudoeste 7 Sudoeste 0 -- -- 91
2020-07-08 08:00:00 20.6 3 Sudeste 9 Sudeste 0 -- -- 92
2020-07-08 07:00:00 20.4 6 Norte 9 Nordeste 0 -- -- 92
2020-07-08 06:00:00 20.5 0 Calma 7 Sudeste 0 -- -- 89
2020-07-08 05:00:00 20.8 3 Nordeste 5 Este 0 -- -- 84
2020-07-08 04:00:00 20.8 2 Sudeste 6 Nordeste 0 -- -- 85
2020-07-08 03:00:00 21 2 Nordeste 6 Sudeste 0 -- -- 84
2020-07-08 02:00:00 21.5 5 Sudeste 9 Este 0 -- -- 87
2020-07-08 01:00:00 21.6 4 Sudeste 7 Este 0 -- -- 88
2020-07-08 00:00:00 21.8 3 Sudeste 10 Sudeste 0 -- -- 87
2020-07-07 23:00:00 21.9 8 Sudeste 13 Sudeste 0 -- -- 88
2020-07-07 22:00:00 22.3 0 Calma 7 Noroeste 0 -- -- 87
2020-07-07 21:00:00 22.9 5 Noroeste 12 Sur 0 -- -- 85
2020-07-07 20:00:00 23.2 8 Sur 17 Sudeste 0 -- -- 85
2020-07-07 19:00:00 24.3 11 Sur 15 Sur 0 -- -- 79
2020-07-07 18:00:00 27.7 6 Oeste 10 Sudoeste 0 -- -- 65
2020-07-07 17:00:00 28.1 6 Oeste 13 Oeste 0 -- -- 65
2020-07-07 16:00:00 27.6 8 Sudoeste 13 Oeste 0 -- -- 67
2020-07-07 15:00:00 26.7 8 Sur 14 Oeste 0 -- -- 71
2020-07-07 14:00:00 25.5 11 Sur 33 Sur 0 -- -- 75
2020-07-07 13:00:00 25.5 15 Sur 28 Sur 0 -- -- 72
2020-07-07 12:00:00 27.1 5 Sur 12 Sudoeste 0 -- -- 66
2020-07-07 11:00:00 25.2 5 Sur 13 Noroeste 0 -- -- 74
2020-07-07 10:00:00 23.5 9 Noroeste 27 Norte 0 -- -- 80
2020-07-07 09:00:00 21.8 18 Norte 27 Norte 0 -- -- 88
2020-07-07 08:00:00 21.3 6 Norte 12 Sur 0 -- -- 90
2020-07-07 07:00:00 21.2 8 Sudeste 11 Sudeste 0 -- -- 87
2020-07-07 06:00:00 21.9 8 Sudeste 12 Sudeste 0 -- -- 84
2020-07-07 05:00:00 23.1 8 Sudeste 15 Sudeste 0 -- -- 67
2020-07-07 04:00:00 22.2 7 Sudeste 10 Sudeste 0 -- -- 73
2020-07-07 03:00:00 21.5 3 Sudeste 6 Sur 0 -- -- 82
2020-07-07 02:00:00 21.6 3 Nordeste 7 Nordeste 0 -- -- 81
2020-07-07 01:00:00 22 2 Norte 7 Norte 0 -- -- 79
2020-07-07 00:00:00 22.6 5 Norte 8 Norte 0 -- -- 78
2020-07-06 23:00:00 23.3 3 Este 15 Sudeste 0 -- -- 71
2020-07-06 22:00:00 23.1 9 Sudeste 15 Sudeste 0 -- -- 74
2020-07-06 21:00:00 24.1 4 Sur 9 Noroeste 0 -- -- 68
2020-07-06 20:00:00 24.5 0 Calma 16 Sur 0 -- -- 68
2020-07-06 19:00:00 25.7 10 Sur 17 Sur 0 -- -- 65
2020-07-06 18:00:00 28.6 8 Noroeste 27 Sur 0 -- -- 55
2020-07-06 17:00:00 27.7 15 Sur 26 Sur 0 -- -- 52
2020-07-06 16:00:00 31.1 8 Sudoeste 12 Noroeste 0 -- -- 39
2020-07-06 15:00:00 29.4 6 Sudoeste 13 Sudoeste 0 -- -- 49
2020-07-06 14:00:00 29.2 5 Sur 14 Sur 0 -- -- 41
2020-07-06 13:00:00 28.9 5 Noroeste 12 Noroeste 0 -- -- 53
2020-07-06 12:00:00 26 9 Sur 13 Sur 0 -- -- 62
2020-07-06 11:00:00 26.6 5 Sur 13 Sudoeste 0 -- -- 59
2020-07-06 10:00:00 25.4 4 Sudoeste 14 Nordeste 0 -- -- 63
2020-07-06 09:00:00 22.3 6 Nordeste 12 Nordeste 0 -- -- 74
2020-07-06 08:00:00 20.8 3 Este 10 Este 0 -- -- 76
2020-07-06 07:00:00 21.2 5 Sudeste 10 Sur 0 -- -- 71
2020-07-06 06:00:00 20.7 3 Este 8 Nordeste 0 -- -- 73
2020-07-06 05:00:00 20.3 3 Sudeste 6 Este 0 -- -- 76
2020-07-06 04:00:00 20.7 3 Este 10 Sudeste 0 -- -- 74
2020-07-06 03:00:00 21.4 4 Sudeste 12 Sudeste 0 -- -- 70
2020-07-06 02:00:00 21.3 10 Sudeste 13 Sudeste 0 -- -- 71
2020-07-06 01:00:00 20.6 4 Sudeste 7 Sudeste 0 -- -- 77
2020-07-06 00:00:00 21.2 2 Sudeste 9 Sudeste 0 -- -- 73
2020-07-05 23:00:00 21.7 8 Sudeste 13 Sur 0 -- -- 68
2020-07-05 22:00:00 22 4 Norte 7 Sudeste 0 -- -- 69
2020-07-05 21:00:00 22.8 4 Sur 9 Sur 0 -- -- 67
2020-07-05 20:00:00 23.8 6 Sur 10 Oeste 0 -- -- 72
2020-07-05 19:00:00 25.3 5 Oeste 13 Sur 0 -- -- 69
2020-07-05 18:00:00 25.3 9 Sur 16 Sur 0 -- -- 69
2020-07-05 17:00:00 26.3 8 Sur 13 Oeste 0 -- -- 64
2020-07-05 16:00:00 26.6 7 Sudoeste 16 Sur 0 -- -- 64
2020-07-05 15:00:00 25.8 10 Sur 17 Sudoeste 0 -- -- 68
2020-07-05 14:00:00 26.4 8 Oeste 16 Sur 0 -- -- 66
2020-07-05 13:00:00 26.2 8 Sur 14 Sudoeste 0 -- -- 68
2020-07-05 12:00:00 25.3 6 Sur 13 Sur 0 -- -- 67
2020-07-05 11:00:00 23.8 8 Sur 11 Sur 0 -- -- 72
2020-07-05 10:00:00 22.9 4 Sudoeste 7 Sudoeste 0 -- -- 79
2020-07-05 09:00:00 20.6 2 Sudoeste 4 Sudoeste 0 -- -- 87
2020-07-05 08:00:00 18.8 2 Sur 12 Sur 0 -- -- 86
2020-07-05 07:00:00 19.2 8 Sudeste 15 Sudeste 0 -- -- 84
2020-07-05 06:00:00 18.6 5 Sudeste 10 Sudeste 0 -- -- 91
2020-07-05 05:00:00 18.8 4 Este 5 Este 0 -- -- 89
2020-07-05 04:00:00 19.5 2 Sudeste 14 Sur 0 -- -- 86
2020-07-05 03:00:00 19.8 8 Sudeste 15 Sur 0 -- -- 90
2020-07-05 02:00:00 19.9 6 Sudeste 11 Sudeste 0 -- -- 91
2020-07-05 01:00:00 20 4 Sur 8 Sudeste 0 -- -- 88
2020-07-05 00:00:00 20.4 0 Calma 10 Sudeste 0 -- -- 87
2020-07-04 23:00:00 20.8 6 Sur 10 Sur 0 -- -- 89
2020-07-04 22:00:00 21.2 0 Calma 4 Sudoeste 0 -- -- 81
2020-07-04 21:00:00 22.1 0 Calma 8 Sur 0 -- -- 81
2020-07-04 20:00:00 23 5 Sur 12 Sur 0 -- -- 76
2020-07-04 19:00:00 24.4 8 Sudoeste 12 Sudoeste 0 -- -- 73
2020-07-04 18:00:00 25 9 Sudoeste 16 Sur 0 -- -- 71
2020-07-04 17:00:00 24.8 12 Sur 26 Sur 0 -- -- 72
2020-07-04 16:00:00 24.7 18 Sur 27 Sur 0 -- -- 75
2020-07-04 15:00:00 25.8 9 Sur 15 Sur 0 -- -- 73
2020-07-04 14:00:00 25.8 9 Sur 16 Sur 0 -- -- 71
2020-07-04 13:00:00 25.8 10 Sur 15 Sur 0 -- -- 72
2020-07-04 12:00:00 24.9 9 Sur 18 Sur 0 -- -- 75
2020-07-04 11:00:00 24.2 8 Sur 13 Sur 0 -- -- 77
2020-07-04 10:00:00 23.1 6 Sur 12 Sur 0 -- -- 80
2020-07-04 09:00:00 21.3 4 Sur 6 Sudeste 0 -- -- 89
2020-07-04 08:00:00 19.4 0 Calma 4 Noroeste 0 -- -- 90
2020-07-04 07:00:00 19.5 2 Noroeste 8 Norte 0 -- -- 88
2020-07-04 06:00:00 19.8 5 Norte 12 Sudeste 0 -- -- 84
2020-07-04 05:00:00 19.8 5 Sudeste 8 Sudeste 0 -- -- 77
2020-07-04 04:00:00 19.7 2 Sudeste 5 Sur 0 -- -- 78
2020-07-04 03:00:00 20.3 2 Nordeste 9 Sudeste 0 -- -- 76
2020-07-04 02:00:00 20.3 4 Sudeste 6 Este 0 -- -- 80
2020-07-04 01:00:00 20.6 5 Este 7 Este 0 -- -- 79
2020-07-04 00:00:00 21 4 Sudeste 8 Sudeste 0 -- -- 77
2020-07-03 23:00:00 21.4 2 Sudeste 4 Sur 0 -- -- 75
2020-07-03 22:00:00 22.3 3 Sudeste 6 Sur 0 -- -- 72
2020-07-03 21:00:00 23.2 3 Sur 7 Sur 0 -- -- 68
2020-07-03 20:00:00 24.2 4 Sur 13 Sur 0 -- -- 67
2020-07-03 19:00:00 24.9 9 Sur 26 Sur 0 -- -- 65
2020-07-03 18:00:00 26.4 16 Sur 26 Sur 0 -- -- 57
2020-07-03 17:00:00 26.6 10 Sur 15 Sur 0 -- -- 64
2020-07-03 16:00:00 28.1 7 Oeste 15 Oeste 0 -- -- 63
2020-07-03 15:00:00 27.1 7 Sudoeste 21 Sur 0 -- -- 64
2020-07-03 14:00:00 28 9 Sur 22 Sudeste 0 -- -- 55
2020-07-03 13:00:00 26.8 12 Sur 18 Sudeste 0 -- -- 55
2020-07-03 12:00:00 27.4 6 Sudoeste 11 Oeste 0 -- -- 60
2020-07-03 11:00:00 26.3 5 Noroeste 9 Noroeste 0 -- -- 66
2020-07-03 10:00:00 24.4 4 Sur 10 Sudoeste 0 -- -- 69
2020-07-03 09:00:00 21.9 2 Norte 10 Nordeste 0 -- -- 83
2020-07-03 08:00:00 20.2 5 Sur 14 Sudeste 0 -- -- 78
2020-07-03 07:00:00 19.7 8 Sudeste 10 Sudeste 0 -- -- 93
2020-07-03 06:00:00 19.8 2 Norte 8 Sudeste 0 -- -- 90
2020-07-03 05:00:00 20 4 Sudeste 8 Sudeste 0 -- -- 84
2020-07-03 04:00:00 20.4 0 Calma 13 Sur 0 -- -- 87
2020-07-03 03:00:00 20.8 5 Sur 13 Noroeste 0 -- -- 88
2020-07-03 02:00:00 21.4 5 Noroeste 18 Sur 0 -- -- 82
2020-07-03 01:00:00 21.8 7 Este 19 Sur 0 -- -- 79
2020-07-03 00:00:00 21.7 8 Sudeste 15 Norte 0 -- -- 86
2020-07-02 23:00:00 22.1 7 Norte 14 Norte 0 -- -- 79
2020-07-02 22:00:00 22.9 10 Sudeste 16 Sudeste 0 -- -- 72
2020-07-02 21:00:00 23.5 8 Sudeste 14 Sudeste 0 -- -- 68
2020-07-02 20:00:00 24.3 3 Oeste 9 Sudoeste 0 -- -- 67
2020-07-02 19:00:00 24.6 5 Sudoeste 11 Oeste 0 -- -- 73
2020-07-02 18:00:00 25.6 6 Sudoeste 14 Sudoeste 0 -- -- 67
2020-07-02 17:00:00 25.9 9 Sur 16 Sudeste 0 -- -- 68
2020-07-02 16:00:00 26.5 8 Sur 19 Oeste 0 -- -- 65
2020-07-02 15:00:00 26.7 8 Sur 17 Sur 0 -- -- 68
2020-07-02 14:00:00 27.9 9 Oeste 14 Oeste 0 -- -- 64
2020-07-02 13:00:00 26.6 7 Sudoeste 15 Sudoeste 0 -- -- 69
2020-07-02 12:00:00 27 6 Sudoeste 18 Sur 0 -- -- 63
2020-07-02 11:00:00 25.9 6 Sur 11 Oeste 0 -- -- 66
2020-07-02 10:00:00 24.1 5 Sur 10 Noroeste 0 -- -- 77
2020-07-02 09:00:00 22.1 6 Noroeste 15 Norte 0 -- -- 83
2020-07-02 08:00:00 20.1 4 Norte 9 Norte 0 -- -- 85
2020-07-02 07:00:00 20.5 5 Noroeste 14 Norte 0 -- -- 80
2020-07-02 06:00:00 21.5 4 Sur 21 Este 0 -- -- 67
2020-07-02 05:00:00 20.2 6 Este 17 Norte 0 -- -- 84
2020-07-02 04:00:00 20 5 Norte 13 Sudeste 0 -- -- 88
2020-07-02 03:00:00 19.5 3 Sudoeste 6 Sudeste 0 -- -- 87
2020-07-02 02:00:00 20 6 Sudeste 10 Sudeste 0 -- -- 86
2020-07-02 01:00:00 20.3 2 Sudeste 6 Este 0 -- -- 87
2020-07-02 00:00:00 21 3 Noroeste 12 Sudeste 0 -- -- 85
2020-07-01 23:00:00 21.6 8 Sur 15 Sur 0 -- -- 85
2020-07-01 22:00:00 22.3 5 Noroeste 23 Sur 0 -- -- 82
2020-07-01 21:00:00 22.7 8 Sur 16 Sur 0 -- -- 80
2020-07-01 20:00:00 23.9 6 Sur 13 Oeste 0 -- -- 75
2020-07-01 19:00:00 24.4 7 Sudoeste 20 Sudoeste 0 -- -- 75
2020-07-01 18:00:00 24.5 16 Sur 25 Sur 0 -- -- 72
2020-07-01 17:00:00 26.1 9 Sur 17 Sur 0 -- -- 67
2020-07-01 16:00:00 26.5 6 Sudoeste 15 Sudoeste 0 -- -- 64
2020-07-01 15:00:00 27.4 8 Sudoeste 15 Oeste 0 -- -- 60
2020-07-01 14:00:00 27.7 9 Oeste 14 Sudoeste 0 -- -- 62
2020-07-01 13:00:00 25.6 8 Sudoeste 15 Sudoeste 0 -- -- 68
2020-07-01 12:00:00 24.7 8 Sudoeste 12 Sudoeste 0 -- -- 71
2020-07-01 11:00:00 24.3 6 Oeste 12 Oeste 0 -- -- 73
2020-07-01 10:00:00 22.7 4 Oeste 8 Oeste 0 -- -- 79
2020-07-01 09:00:00 20.7 0 Calma 5 Norte 0 -- -- 88
2020-07-01 08:00:00 19 0 Calma 5 Sur 0 -- -- 89
2020-07-01 07:00:00 18.9 0 Calma 5 Este 0 -- -- 88
2020-07-01 06:00:00 19.3 0 Calma 7 Sudeste 0 -- -- 86
2020-07-01 05:00:00 20.3 4 Sudeste 10 Sudeste 0 -- -- 85
2020-07-01 04:00:00 20.6 0 Calma 6 Sur 0 -- -- 82
2020-07-01 03:00:00 21.6 0 Calma 10 Noroeste 0 -- -- 80
2020-07-01 02:00:00 21.8 4 Oeste 9 Noroeste 0 -- -- 80
2020-07-01 01:00:00 22 3 Este 11 Sudeste 0 -- -- 81
2020-07-01 00:00:00 22.2 4 Oeste 9 Oeste 0 -- -- 81
2020-06-30 23:00:00 22.3 5 Sudoeste 13 Oeste 0 -- -- 78
2020-06-30 22:00:00 22.5 4 Norte 11 Sudoeste 0 -- -- 78
2020-06-30 21:00:00 23 6 Sudoeste 11 Sudoeste 0 -- -- 75
2020-06-30 20:00:00 23.7 6 Sudoeste 17 Sur 0 -- -- 71
2020-06-30 19:00:00 24.2 7 Sur 19 Sur 0 -- -- 70
2020-06-30 18:00:00 26 9 Sudoeste 14 Sudoeste 0 -- -- 63
2020-06-30 17:00:00 26.1 10 Sur 19 Oeste 0 -- -- 62
2020-06-30 16:00:00 27.3 10 Sudoeste 15 Sudoeste 0 -- -- 58
2020-06-30 15:00:00 28 10 Sudoeste 17 Oeste 0 -- -- 58
2020-06-30 14:00:00 27.5 10 Sudoeste 15 Oeste 0 -- -- 58
2020-06-30 13:00:00 27.5 10 Sudoeste 14 Oeste 0 -- -- 58
2020-06-30 12:00:00 27.6 9 Oeste 17 Oeste 0 -- -- 58
2020-06-30 11:00:00 24.5 8 Oeste 12 Noroeste 0 -- -- 69
2020-06-30 10:00:00 22.3 4 Sur 11 Sur 0 -- -- 80
2020-06-30 09:00:00 21.4 4 Sur 11 Sur 0 -- -- 83
2020-06-30 08:00:00 20.8 5 Sur 13 Sudeste 0 -- -- 84
2020-06-30 07:00:00 20.4 4 Sur 7 Sur 0 -- -- 86
2020-06-30 06:00:00 20 0 Calma 5 Este 0 -- -- 87
2020-06-30 05:00:00 19.9 2 Sudeste 8 Sudeste 0 -- -- 87
2020-06-30 04:00:00 19.9 4 Este 10 Este 0 -- -- 86
2020-06-30 03:00:00 20.5 4 Sudeste 10 Sur 0 -- -- 81
2020-06-30 02:00:00 21 5 Sudeste 9 Sudeste 0 -- -- 83
2020-06-30 01:00:00 20.8 0 Calma 9 Sudeste 0 -- -- 84
2020-06-30 00:00:00 20.7 5 Sudeste 9 Sudeste 0 -- -- 86
2020-06-29 23:00:00 20.9 3 Sudeste 4 Sudeste 0 -- -- 82
2020-06-29 22:00:00 21.8 0 Calma 14 Sur 0 -- -- 79
2020-06-29 21:00:00 22.6 8 Sur 13 Sur 0 -- -- 75
2020-06-29 20:00:00 23.8 6 Sur 14 Sudeste 0 -- -- 70
2020-06-29 19:00:00 25.4 8 Sudoeste 13 Sudoeste 0 -- -- 65
2020-06-29 18:00:00 26.3 8 Sudoeste 13 Sur 0 -- -- 62
2020-06-29 17:00:00 26.2 9 Sur 14 Sudoeste 0 -- -- 62
2020-06-29 16:00:00 27.1 10 Sudoeste 15 Sudoeste 0 -- -- 59
2020-06-29 15:00:00 26.3 10 Sudoeste 17 Sudoeste 0 -- -- 63
2020-06-29 14:00:00 26.6 9 Sudoeste 14 Sudoeste 0 -- -- 61
2020-06-29 13:00:00 26.4 8 Sudoeste 14 Sudoeste 0 -- -- 63
2020-06-29 12:00:00 25.3 6 Sur 12 Sur 0 -- -- 68
2020-06-29 11:00:00 24.6 5 Sur 10 Sur 0 -- -- 70
2020-06-29 10:00:00 23.7 5 Sur 12 Sur 0 -- -- 73
2020-06-29 09:00:00 21 6 Sur 9 Sur 0 -- -- 87
2020-06-29 08:00:00 18.9 5 Este 9 Sudeste 0 -- -- 91
2020-06-29 07:00:00 18.6 3 Sudeste 6 Este 0 -- -- 91
2020-06-29 06:00:00 19 2 Sudeste 4 Este 0 -- -- 90
2020-06-29 05:00:00 19.5 3 Sur 12 Sudeste 0 -- -- 87
2020-06-29 04:00:00 20.2 6 Sudeste 11 Sudeste 0 -- -- 88
2020-06-29 03:00:00 19.7 4 Sudeste 8 Este 0 -- -- 87
2020-06-29 02:00:00 20.5 4 Sudeste 9 Sur 0 -- -- 85
2020-06-29 01:00:00 21 6 Sur 14 Sudeste 0 -- -- 82
2020-06-29 00:00:00 21.2 8 Sudeste 14 Sudeste 0 -- -- 83
2020-06-28 23:00:00 21 2 Noroeste 8 Sudoeste 0 -- -- 84
2020-06-28 22:00:00 21.6 3 Sudeste 9 Sur 0 -- -- 81
2020-06-28 21:00:00 22.4 5 Sur 10 Sur 0 -- -- 78
2020-06-28 20:00:00 23.5 7 Sur 12 Sur 0 -- -- 72
2020-06-28 19:00:00 24.8 7 Sudoeste 14 Sudoeste 0 -- -- 68
2020-06-28 18:00:00 26.1 8 Sudoeste 13 Sudoeste 0 -- -- 63
2020-06-28 17:00:00 26.9 9 Sudoeste 14 Sudoeste 0 -- -- 60
2020-06-28 16:00:00 26.7 10 Sur 17 Sur 0 -- -- 61
2020-06-28 15:00:00 26 12 Sur 18 Sur 0 -- -- 64
2020-06-28 14:00:00 26.3 10 Sur 15 Sudoeste 0 -- -- 64
2020-06-28 13:00:00 26.4 9 Sudoeste 15 Sudoeste 0 -- -- 65
2020-06-28 12:00:00 25 10 Sur 18 Sur 0 -- -- 69
2020-06-28 11:00:00 24 10 Sur 16 Sur 0 -- -- 71
2020-06-28 10:00:00 22.8 6 Sur 9 Sur 0 -- -- 76
2020-06-28 09:00:00 21 3 Sudoeste 8 Sur 0 -- -- 83
2020-06-28 08:00:00 19.9 4 Sudeste 9 Este 0 -- -- 87
2020-06-28 07:00:00 19 5 Sudeste 11 Sudeste 0 -- -- 88
2020-06-28 06:00:00 19.2 7 Sudeste 21 Sudeste 0 -- -- 86
2020-06-28 05:00:00 19 6 Sudeste 13 Sudeste 0 -- -- 88
2020-06-28 04:00:00 18.5 6 Sudeste 11 Sudeste 0 -- -- 89
2020-06-28 03:00:00 18.4 6 Sudeste 7 Sudeste 0 -- -- 89
2020-06-28 02:00:00 18.5 0 Calma 5 Sudeste 0 -- -- 85
2020-06-28 01:00:00 19.2 3 Sudeste 9 Sur 0 -- -- 84
2020-06-28 00:00:00 19.7 4 Sudeste 9 Sudeste 0 -- -- 86
2020-06-27 23:00:00 20.1 0 Calma 5 Oeste 0 -- -- 80
2020-06-27 22:00:00 20.7 2 Noroeste 5 Sudoeste 0 -- -- 76
2020-06-27 21:00:00 21.8 3 Sudoeste 14 Sudeste 0 -- -- 74
2020-06-27 20:00:00 22.5 8 Sur 17 Sur 0 -- -- 72
2020-06-27 19:00:00 23.5 10 Sur 18 Sur 0 -- -- 69
2020-06-27 18:00:00 25 11 Sur 15 Sur 0 -- -- 63
2020-06-27 17:00:00 26.1 9 Sudoeste 15 Sudoeste 0 -- -- 60
2020-06-27 16:00:00 26.7 10 Sudoeste 18 Sudoeste 0 -- -- 57
2020-06-27 15:00:00 26.6 10 Sudoeste 18 Sudoeste 0 -- -- 60
2020-06-27 14:00:00 27.5 10 Oeste 16 Oeste 0 -- -- 56
2020-06-27 13:00:00 27.3 9 Oeste 15 Sudoeste 0 -- -- 58
2020-06-27 12:00:00 25.7 9 Oeste 16 Oeste 0 -- -- 62
2020-06-27 11:00:00 23.3 5 Sudoeste 12 Sudoeste 0 -- -- 70
2020-06-27 10:00:00 21.4 4 Sur 9 Sur 0 -- -- 77
2020-06-27 09:00:00 20.7 4 Sur 12 Sudeste 0 -- -- 82
2020-06-27 08:00:00 17.9 6 Sudeste 10 Sudeste 0 -- -- 89
2020-06-27 07:00:00 17.7 3 Este 8 Sudeste 0 -- -- 89
2020-06-27 06:00:00 18 5 Este 6 Este 0 -- -- 88
2020-06-27 05:00:00 18.6 6 Este 9 Sudeste 0 -- -- 86
2020-06-27 04:00:00 18.6 6 Sudeste 9 Sudeste 0 -- -- 87
2020-06-27 03:00:00 18.8 4 Sudeste 6 Sudeste 0 -- -- 86
2020-06-27 02:00:00 19.3 2 Sur 5 Sudeste 0 -- -- 83
2020-06-27 01:00:00 19.9 4 Sudeste 11 Sudeste 0 -- -- 83
2020-06-27 00:00:00 20.2 4 Sudeste 9 Sudoeste 0 -- -- 78
2020-06-26 23:00:00 20.7 6 Sudeste 9 Sur 0 -- -- 77
2020-06-26 22:00:00 21.2 2 Sudeste 9 Sur 0 -- -- 74
2020-06-26 21:00:00 22 5 Sur 13 Sudeste 0 -- -- 71
2020-06-26 20:00:00 23.1 6 Sur 15 Sur 0 -- -- 68
2020-06-26 19:00:00 24.3 9 Sur 15 Sur 0 -- -- 64
2020-06-26 18:00:00 25 10 Sur 19 Sur 0 -- -- 60
2020-06-26 17:00:00 26.2 9 Sur 22 Sur 0 -- -- 58
2020-06-26 16:00:00 27.5 9 Sudoeste 18 Oeste 0 -- -- 56
2020-06-26 15:00:00 28.5 10 Oeste 15 Sudoeste 0 -- -- 54
2020-06-26 14:00:00 26.2 9 Sudoeste 17 Sur 0 -- -- 61
2020-06-26 13:00:00 25.8 9 Sur 15 Sur 0 -- -- 63
2020-06-26 12:00:00 25.9 8 Sudoeste 14 Oeste 0 -- -- 61
2020-06-26 11:00:00 25.4 8 Oeste 10 Sudoeste 0 -- -- 63
2020-06-26 10:00:00 23 4 Sudoeste 8 Sudoeste 0 -- -- 71
2020-06-26 09:00:00 20.8 0 Calma 9 Sudeste 0 -- -- 80
2020-06-26 08:00:00 18.1 5 Este 8 Este 0 -- -- 87
2020-06-26 07:00:00 18.1 6 Este 10 Este 0 -- -- 86
2020-06-26 06:00:00 18.2 6 Este 9 Este 0 -- -- 85
2020-06-26 05:00:00 18.3 5 Sudeste 8 Sudeste 0 -- -- 84
2020-06-26 04:00:00 19.1 4 Sudeste 10 Sudeste 0 -- -- 82
2020-06-26 03:00:00 19.7 7 Sudeste 13 Sudeste 0 -- -- 80
2020-06-26 02:00:00 19 2 Este 6 Este 0 -- -- 82
2020-06-26 01:00:00 19.4 0 Calma 7 Este 0 -- -- 80
2020-06-26 00:00:00 20.5 3 Sudeste 10 Sudeste 0 -- -- 77
2020-06-25 23:00:00 20.7 4 Sudeste 12 Sudeste 0 -- -- 76
2020-06-25 22:00:00 21.4 4 Nordeste 8 Este 0 -- -- 73
2020-06-25 21:00:00 22.5 3 Este 10 Sudoeste 0 -- -- 70
2020-06-25 20:00:00 23.5 5 Sudoeste 14 Sudoeste 0 -- -- 66
2020-06-25 19:00:00 24.4 6 Sudoeste 17 Sur 0 -- -- 63
2020-06-25 18:00:00 25.3 10 Sur 19 Sur 0 -- -- 60
2020-06-25 17:00:00 26.2 12 Sur 17 Sur 0 -- -- 56
2020-06-25 16:00:00 27 9 Sur 20 Oeste 0 -- -- 53
2020-06-25 15:00:00 28.6 12 Oeste 22 Oeste 0 -- -- 52
2020-06-25 14:00:00 26.1 9 Sur 22 Sur 0 -- -- 57
2020-06-25 13:00:00 25.5 12 Sur 18 Sur 0 -- -- 58
2020-06-25 12:00:00 27 7 Oeste 14 Noroeste 0 -- -- 56
2020-06-25 11:00:00 24.9 5 Oeste 12 Sudoeste 0 -- -- 61
2020-06-25 10:00:00 23.4 5 Sur 14 Sur 0 -- -- 69
2020-06-25 09:00:00 20.8 7 Sudeste 13 Sudeste 0 -- -- 76
2020-06-25 08:00:00 18 4 Este 7 Este 0 -- -- 87
2020-06-25 07:00:00 17.8 3 Este 8 Este 0 -- -- 87
2020-06-25 06:00:00 18.2 6 Este 9 Este 0 -- -- 85
2020-06-25 05:00:00 18.3 5 Este 11 Sudeste 0 -- -- 84
2020-06-25 04:00:00 18.4 7 Sudeste 10 Sudeste 0 -- -- 85
2020-06-25 03:00:00 18.4 4 Sudeste 5 Este 0 -- -- 86
2020-06-25 02:00:00 19 0 Calma 8 Sudeste 0 -- -- 82
2020-06-25 01:00:00 19.7 4 Sudeste 11 Sudeste 0 -- -- 80
2020-06-25 00:00:00 20 7 Sudeste 12 Sudeste 0 -- -- 80
2020-06-24 23:00:00 20.3 3 Este 6 Oeste 0 -- -- 77
2020-06-24 22:00:00 21.3 0 Calma 14 Sur 0 -- -- 74
2020-06-24 21:00:00 22.2 9 Sur 15 Sudeste 0 -- -- 72
2020-06-24 20:00:00 23.2 9 Sur 17 Sur 0 -- -- 68
2020-06-24 19:00:00 25.5 9 Sudoeste 15 Oeste 0 -- -- 60
2020-06-24 18:00:00 26.2 9 Oeste 18 Sur 0 -- -- 62
2020-06-24 17:00:00 25.5 12 Sur 18 Sur 0 -- -- 62
2020-06-24 16:00:00 26.9 9 Sudoeste 16 Sudoeste 0 -- -- 58
2020-06-24 15:00:00 26.6 8 Oeste 15 Sudoeste 0 -- -- 60
2020-06-24 14:00:00 25.8 8 Sudoeste 14 Sur 0 -- -- 63
2020-06-24 13:00:00 25.5 9 Sur 14 Sudoeste 0 -- -- 65
2020-06-24 12:00:00 25.5 8 Sudoeste 12 Sudoeste 0 -- -- 66
2020-06-24 11:00:00 24.3 6 Sudoeste 11 Sudoeste 0 -- -- 69
2020-06-24 10:00:00 23.2 4 Sudoeste 8 Sudoeste 0 -- -- 73
2020-06-24 09:00:00 20.5 4 Sur 9 Sudeste 0 -- -- 81
2020-06-24 08:00:00 18 7 Este 10 Este 0 -- -- 88
2020-06-24 07:00:00 17.8 6 Este 8 Este 0 -- -- 89
2020-06-24 06:00:00 17.7 4 Sudeste 6 Sudeste 0 -- -- 90
2020-06-24 05:00:00 18 3 Nordeste 8 Sur 0 -- -- 86
2020-06-24 04:00:00 18.7 5 Sudeste 8 Sudeste 0 -- -- 86
2020-06-24 03:00:00 19 3 Sudeste 6 Sudeste 0 -- -- 84
2020-06-24 02:00:00 19.4 0 Calma 3 Sudeste 0 -- -- 83
2020-06-24 01:00:00 20.1 0 Calma 4 Oeste 0 -- -- 83
2020-06-24 00:00:00 20.8 0 Calma 7 Sudeste 0 -- -- 79
2020-06-23 23:00:00 21.1 3 Sudeste 6 Sudeste 0 -- -- 79
2020-06-23 22:00:00 21.7 0 Calma 7 Sur 0 -- -- 76
2020-06-23 21:00:00 23.2 3 Oeste 10 Oeste 0 -- -- 71
2020-06-23 20:00:00 24.4 6 Oeste 14 Oeste 0 -- -- 68
2020-06-23 19:00:00 24.6 7 Sudoeste 15 Sur 0 -- -- 68
2020-06-23 18:00:00 25.7 8 Sudoeste 14 Sur 0 -- -- 67
2020-06-23 17:00:00 26.2 9 Sudoeste 16 Sudoeste 0 -- -- 62
2020-06-23 16:00:00 26.8 8 Sudoeste 13 Oeste 0 -- -- 62
2020-06-23 15:00:00 26.2 9 Sudoeste 15 Sudoeste 0 -- -- 64
2020-06-23 14:00:00 26.1 9 Sudoeste 16 Sur 0 -- -- 65
2020-06-23 13:00:00 25.8 9 Sudoeste 17 Sudoeste 0 -- -- 66
2020-06-23 12:00:00 25.8 9 Oeste 15 Oeste 0 -- -- 65
2020-06-23 11:00:00 24.1 9 Oeste 14 Oeste 0 -- -- 74
2020-06-23 10:00:00 22.4 4 Noroeste 8 Oeste 0 -- -- 79
2020-06-23 09:00:00 19.9 0 Calma 5 Nordeste 0 -- -- 87
2020-06-23 08:00:00 16.8 3 Este 4 Nordeste 0 -- -- 93
2020-06-23 07:00:00 16.7 3 Nordeste 5 Este 0 -- -- 88
2020-06-23 06:00:00 17.7 5 Este 9 Este 0 -- -- 86
2020-06-23 05:00:00 17.9 6 Este 9 Sudeste 0 -- -- 86
2020-06-23 04:00:00 18.2 6 Sudeste 10 Este 0 -- -- 87
2020-06-23 03:00:00 18.4 4 Este 8 Este 0 -- -- 87
2020-06-23 02:00:00 18.7 5 Este 6 Este 0 -- -- 90
2020-06-23 01:00:00 18.9 0 Calma 6 Sudeste 0 -- -- 88
2020-06-23 00:00:00 19.4 0 Calma 6 Sur 0 -- -- 86
2020-06-22 23:00:00 20.1 2 Sur 5 Sur 0 -- -- 84
2020-06-22 22:00:00 20.9 0 Calma 5 Sur 0 -- -- 79
2020-06-22 21:00:00 21.9 3 Sur 9 Sur 0 -- -- 78
2020-06-22 20:00:00 22.9 6 Sur 12 Sur 0 -- -- 73
2020-06-22 19:00:00 23.9 8 Sur 13 Sur 0 -- -- 69
2020-06-22 18:00:00 25.1 8 Sur 14 Sur 0 -- -- 65
2020-06-22 17:00:00 25.6 8 Sur 14 Sur 0 -- -- 64
2020-06-22 16:00:00 27 8 Sudoeste 14 Sudoeste 0 -- -- 59
2020-06-22 15:00:00 26.1 8 Sudoeste 14 Sudoeste 0 -- -- 63
2020-06-22 14:00:00 26.2 7 Sudoeste 13 Sudoeste 0 -- -- 63
2020-06-22 13:00:00 26.1 8 Sudoeste 13 Sudoeste 0 -- -- 65
2020-06-22 12:00:00 25.9 6 Oeste 14 Oeste 0 -- -- 67
2020-06-22 11:00:00 23.9 8 Oeste 12 Oeste 0 -- -- 76
2020-06-22 10:00:00 23 6 Sur 12 Sur 0 -- -- 77
2020-06-22 09:00:00 20.9 5 Sur 11 Sudeste 0 -- -- 81
2020-06-22 08:00:00 17.4 7 Este 9 Sudeste 0 -- -- 86
2020-06-22 07:00:00 16.8 5 Nordeste 6 Nordeste 0 -- -- 85
2020-06-22 06:00:00 18 6 Sudeste 10 Este 0 -- -- 83
2020-06-22 05:00:00 18 8 Sudeste 11 Sudeste 0 -- -- 84
2020-06-22 04:00:00 17.6 4 Sudeste 6 Nordeste 0 -- -- 84
2020-06-22 03:00:00 17.9 5 Nordeste 6 Nordeste 0 -- -- 85
2020-06-22 02:00:00 18.2 3 Sudeste 5 Sudeste 0 -- -- 83
2020-06-22 01:00:00 18.6 2 Este 4 Este 0 -- -- 82
2020-06-22 00:00:00 19.3 2 Este 5 Sudeste 0 -- -- 79
2020-06-21 23:00:00 20 4 Sudeste 6 Sudeste 0 -- -- 77
2020-06-21 22:00:00 20.8 3 Sudeste 6 Sudeste 0 -- -- 75
2020-06-21 21:00:00 22 0 Calma 7 Sur 0 -- -- 70
2020-06-21 20:00:00 23.1 4 Sudoeste 10 Sudoeste 0 -- -- 72
2020-06-21 19:00:00 24.6 7 Sudoeste 13 Oeste 0 -- -- 66
2020-06-21 18:00:00 25.8 8 Sudoeste 14 Sudoeste 0 -- -- 63
2020-06-21 17:00:00 26.7 9 Sudoeste 17 Sudoeste 0 -- -- 60
2020-06-21 16:00:00 26.4 9 Sudoeste 14 Sudoeste 0 -- -- 60
2020-06-21 15:00:00 26.2 8 Sur 13 Sur 0 -- -- 60
2020-06-21 14:00:00 25.9 9 Sur 14 Sur 0 -- -- 61
2020-06-21 13:00:00 25.6 8 Sudoeste 13 Sudoeste 0 -- -- 63
2020-06-21 12:00:00 26 7 Sudoeste 12 Sudoeste 0 -- -- 62
2020-06-21 11:00:00 25.4 7 Oeste 12 Oeste 0 -- -- 65
2020-06-21 10:00:00 22.8 4 Sur 9 Sur 0 -- -- 69
2020-06-21 09:00:00 20.8 4 Sur 9 Sudeste 0 -- -- 81
2020-06-21 08:00:00 18.1 4 Sudeste 8 Este 0 -- -- 90
2020-06-21 07:00:00 18.1 6 Este 9 Este 0 -- -- 88
2020-06-21 06:00:00 18.6 6 Este 13 Sudeste 0 -- -- 86
2020-06-21 05:00:00 18.5 8 Sudeste 14 Sudeste 0 -- -- 85
2020-06-21 04:00:00 18.6 7 Este 9 Este 0 -- -- 87
2020-06-21 03:00:00 18.8 4 Este 7 Este 0 -- -- 89
2020-06-21 02:00:00 19.4 4 Sudeste 7 Sudeste 0 -- -- 86
2020-06-21 01:00:00 20.3 3 Sudeste 14 Sur 0 -- -- 81
2020-06-21 00:00:00 20.6 8 Sudeste 17 Sudeste 0 -- -- 83
2020-06-20 23:00:00 20.6 3 Sudeste 12 Sudeste 0 -- -- 76
2020-06-20 22:00:00 21.5 8 Sur 14 Sur 0 -- -- 74
2020-06-20 21:00:00 22 3 Sur 10 Sur 0 -- -- 71
2020-06-20 20:00:00 23.3 6 Sur 9 Sur 0 -- -- 71
2020-06-20 19:00:00 24 8 Sur 15 Sur 0 -- -- 67
2020-06-20 18:00:00 25 9 Sur 20 Sur 0 -- -- 63
2020-06-20 17:00:00 25.7 12 Sur 22 Sur 0 -- -- 61
2020-06-20 16:00:00 26.1 13 Sur 19 Sur 0 -- -- 59
2020-06-20 15:00:00 27.8 10 Sudoeste 17 Sudoeste 0 -- -- 55
2020-06-20 14:00:00 26.8 10 Sudoeste 20 Sur 0 -- -- 57
2020-06-20 13:00:00 25.5 13 Sur 18 Sur 0 -- -- 60
2020-06-20 12:00:00 24.9 10 Sur 18 Sur 0 -- -- 63
2020-06-20 11:00:00 25.3 6 Sudoeste 11 Oeste 0 -- -- 64
2020-06-20 10:00:00 23.7 5 Sudoeste 12 Sudeste 0 -- -- 71
2020-06-20 09:00:00 21.3 3 Sur 11 Sudeste 0 -- -- 80
2020-06-20 08:00:00 18.6 8 Sudeste 12 Sudeste 0 -- -- 89
2020-06-20 07:00:00 18.1 3 Norte 12 Norte 0 -- -- 92
2020-06-20 06:00:00 17.9 0 Calma 5 Sur 0 -- -- 88
2020-06-20 05:00:00 18.5 2 Sudeste 8 Sudeste 0 -- -- 85
2020-06-20 04:00:00 19.1 5 Sudeste 11 Sudeste 0 -- -- 84
2020-06-20 03:00:00 19.9 8 Sudeste 13 Sudeste 0 -- -- 86
2020-06-20 02:00:00 19.7 5 Noroeste 9 Noroeste 0 -- -- 86
2020-06-20 01:00:00 20.4 3 Sur 10 Sudeste 0 -- -- 82
2020-06-20 00:00:00 20.6 4 Sudeste 10 Sur 0 -- -- 82
2020-06-19 23:00:00 21 6 Sudeste 10 Sudeste 0 -- -- 79
2020-06-19 22:00:00 21.4 5 Noroeste 8 Noroeste 0 -- -- 75
2020-06-19 21:00:00 22.4 3 Sur 13 Sur 0 -- -- 71
2020-06-19 20:00:00 23.3 10 Sur 15 Sur 0 -- -- 70
2020-06-19 19:00:00 24.6 6 Sur 10 Sudeste 0 -- -- 67
2020-06-19 18:00:00 25.4 8 Sur 17 Sudoeste 0 -- -- 65
2020-06-19 17:00:00 26.5 8 Sudoeste 19 Sur 0 -- -- 63
2020-06-19 16:00:00 26.8 9 Sudoeste 19 Oeste 0 -- -- 62
2020-06-19 15:00:00 26.6 8 Sudoeste 20 Oeste 0 -- -- 63
2020-06-19 14:00:00 25.3 10 Sur 21 Sudoeste 0 -- -- 67
2020-06-19 13:00:00 25.4 12 Oeste 28 Sudoeste 0 -- -- 64
2020-06-19 12:00:00 26.6 10 Oeste 21 Oeste 0 -- -- 59
2020-06-19 11:00:00 25.5 8 Sudoeste 12 Oeste 0 -- -- 64
2020-06-19 10:00:00 24.1 6 Sudoeste 9 Sudoeste 0 -- -- 67
2020-06-19 09:00:00 21.7 0 Calma 8 Sudeste 0 -- -- 70
2020-06-19 08:00:00 19 6 Sudeste 12 Sudeste 0 -- -- 75
2020-06-19 07:00:00 17.9 6 Sudeste 8 Sudeste 0 -- -- 78
2020-06-19 06:00:00 18.3 0 Calma 10 Este 0 -- -- 77
2020-06-19 05:00:00 19.2 6 Este 9 Este 0 -- -- 79
2020-06-19 04:00:00 19.6 5 Este 9 Este 0 -- -- 81
2020-06-19 03:00:00 20 4 Este 14 Este 0 -- -- 77
2020-06-19 02:00:00 19.9 8 Sudeste 10 Sudeste 0 -- -- 73
2020-06-19 01:00:00 20 6 Sudeste 9 Sudeste 0 -- -- 73
2020-06-19 00:00:00 20.9 4 Sudeste 21 Norte 0 -- -- 68
2020-06-18 23:00:00 21.5 4 Este 13 Nordeste 0 -- -- 65
2020-06-18 22:00:00 22.6 7 Nordeste 21 Este 0 -- -- 57
2020-06-18 21:00:00 23.5 8 Este 28 Este 0 -- -- 53
2020-06-18 20:00:00 24.4 16 Nordeste 35 Norte 0 -- -- 53
2020-06-18 19:00:00 26 16 Nordeste 27 Este 0 -- -- 50
2020-06-18 18:00:00 26.6 8 Sur 17 Sur 0 -- -- 54
2020-06-18 17:00:00 27.4 11 Sur 17 Sur 0 -- -- 49
2020-06-18 16:00:00 27.7 13 Sur 21 Sur 0 -- -- 50
2020-06-18 15:00:00 28.9 11 Sur 21 Oeste 0 -- -- 44
2020-06-18 14:00:00 29.2 9 Oeste 22 Noroeste 0 -- -- 43
2020-06-18 13:00:00 28.4 10 Oeste 26 Noroeste 0 -- -- 49
2020-06-18 12:00:00 26.2 8 Oeste 28 Norte 0 -- -- 56
2020-06-18 11:00:00 24.6 11 Norte 24 Noroeste 0 -- -- 59
2020-06-18 10:00:00 23 12 Norte 23 Norte 0 -- -- 64
2020-06-18 09:00:00 20.9 5 Nordeste 23 Norte 0 -- -- 67
2020-06-18 08:00:00 20.5 10 Nordeste 24 Nordeste 0 -- -- 64
2020-06-18 07:00:00 20.5 14 Nordeste 23 Nordeste 0 -- -- 66
2020-06-18 06:00:00 20.1 10 Norte 16 Norte 0 -- -- 71
2020-06-18 05:00:00 20.5 9 Norte 21 Norte 0 -- -- 71
2020-06-18 04:00:00 20.8 10 Nordeste 21 Nordeste 0 -- -- 67
2020-06-18 03:00:00 20.7 3 Nordeste 22 Noroeste 0 -- -- 70
2020-06-18 02:00:00 21.3 13 Norte 24 Nordeste 0 -- -- 65
2020-06-18 01:00:00 21.5 7 Este 14 Este 0 -- -- 69
2020-06-18 00:00:00 21.9 8 Norte 19 Norte 0 -- -- 63
2020-06-17 23:00:00 21.9 6 Norte 18 Noroeste 0 -- -- 66
2020-06-17 22:00:00 22.4 9 Norte 27 Norte 0 -- -- 67
2020-06-17 21:00:00 23.6 13 Norte 32 Norte 0 -- -- 62
2020-06-17 20:00:00 24.4 19 Norte 39 Noroeste 0 -- -- 61
2020-06-17 19:00:00 25.5 19 Norte 38 Norte 0 -- -- 57
2020-06-17 18:00:00 26.6 25 Norte 43 Norte 0 -- -- 56
2020-06-17 17:00:00 27.2 13 Noroeste 23 Noroeste 0 -- -- 57
2020-06-17 16:00:00 26.3 7 Sudoeste 21 Sudeste 0 -- -- 67
2020-06-17 15:00:00 26.3 14 Sur 21 Sur 0 -- -- 66
2020-06-17 14:00:00 26.4 8 Sudoeste 19 Sur 0 -- -- 66
2020-06-17 13:00:00 27.2 10 Sudoeste 32 Sudoeste 0 -- -- 59
2020-06-17 12:00:00 27.9 12 Noroeste 35 Noroeste 0 -- -- 53
2020-06-17 11:00:00 25.6 9 Sudoeste 19 Sudeste 0 -- -- 66
2020-06-17 10:00:00 24.2 6 Sur 15 Sudeste 0 -- -- 69
2020-06-17 09:00:00 23.3 11 Noroeste 17 Noroeste 0 -- -- 76
2020-06-17 08:00:00 22.6 7 Sudeste 22 Sur 0 -- -- 77
2020-06-17 07:00:00 23.3 14 Sudeste 30 Sur 0 -- -- 72
2020-06-17 06:00:00 23.4 6 Este 17 Norte 0 -- -- 72
2020-06-17 05:00:00 24.8 7 Sur 37 Norte 0 -- -- 67
2020-06-17 04:00:00 24.8 21 Norte 40 Nordeste 0.4 -- -- 57
2020-06-17 03:00:00 23.8 6 Este 16 Sudoeste 0 -- -- 71
2020-06-17 02:00:00 24.9 4 Norte 22 Sur 0 -- -- 61
2020-06-17 01:00:00 28 11 Noroeste 48 Nordeste 0 -- -- 49
2020-06-17 00:00:00 26.8 19 Norte 41 Nordeste 0 -- -- 53
2020-06-16 23:00:00 27.9 19 Norte 62 Norte 0 -- -- 44
2020-06-16 22:00:00 24.2 5 Sur 26 Oeste 0 -- -- 75
2020-06-16 21:00:00 23.9 10 Sudeste 19 Este 0 -- -- 76
2020-06-16 20:00:00 25.3 6 Sudeste 12 Sudoeste 0 -- -- 61
2020-06-16 19:00:00 25.5 5 Este 20 Sur 0 -- -- 63
2020-06-16 18:00:00 25.5 15 Sur 47 Nordeste 0 -- -- 69
2020-06-16 17:00:00 28.8 14 Sudeste 53 Este 0 -- -- 42
2020-06-16 16:00:00 30 10 Norte 40 Norte 0 -- -- 40
2020-06-16 15:00:00 29.1 22 Noroeste 39 Norte 0 -- -- 48
2020-06-16 14:00:00 27.2 2 Sur 13 Sur 0 -- -- 58
2020-06-16 13:00:00 27.7 6 Sur 11 Sudoeste 0 -- -- 54
2020-06-16 12:00:00 28.2 6 Oeste 11 Oeste 0 -- -- 55
2020-06-16 11:00:00 27 5 Noroeste 9 Sudeste 0 -- -- 59
2020-06-16 10:00:00 25.3 3 Norte 8 Noroeste 0 -- -- 68
2020-06-16 09:00:00 22.7 2 Norte 6 Noroeste 0 -- -- 77
2020-06-16 08:00:00 21.4 5 Este 9 Este 0 -- -- 80
2020-06-16 07:00:00 21 6 Nordeste 10 Nordeste 0 -- -- 82
2020-06-16 06:00:00 20.7 6 Este 9 Este 0 -- -- 88
2020-06-16 05:00:00 20.9 4 Nordeste 8 Sudeste 0 -- -- 89
2020-06-16 04:00:00 21.3 4 Este 14 Norte 0 -- -- 92
2020-06-16 03:00:00 21.5 5 Norte 11 Norte 0 -- -- 92
2020-06-16 02:00:00 21.6 3 Norte 6 Sur 0 -- -- 90
2020-06-16 01:00:00 21.8 4 Sur 8 Sur 0 -- -- 90
2020-06-16 00:00:00 22 7 Sudeste 10 Sudeste 0 -- -- 87
2020-06-15 23:00:00 22.5 3 Noroeste 7 Oeste 0 -- -- 84
2020-06-15 22:00:00 23 3 Sur 9 Sudoeste 0 -- -- 79
2020-06-15 21:00:00 23.8 6 Sur 13 Sur 0 -- -- 74
2020-06-15 20:00:00 25 8 Sur 13 Sur 0 -- -- 67
2020-06-15 19:00:00 25.9 3 Sur 13 Sur 0 -- -- 65
2020-06-15 18:00:00 26.9 6 Sur 18 Sur 0 -- -- 64
2020-06-15 17:00:00 28.5 8 Noroeste 19 Oeste 0 -- -- 59
2020-06-15 16:00:00 26.3 5 Sudoeste 15 Noroeste 0 -- -- 69
2020-06-15 15:00:00 25.5 7 Sur 13 Sur 0 -- -- 73
2020-06-15 14:00:00 25.3 7 Sudoeste 14 Sur 0 -- -- 77
2020-06-15 13:00:00 25.1 6 Sudoeste 13 Sur 0 -- -- 76
2020-06-15 12:00:00 24.5 7 Sudoeste 12 Sudoeste 0 -- -- 81
2020-06-15 11:00:00 23 5 Sur 14 Sudoeste 0 -- -- 82
2020-06-15 10:00:00 21.9 5 Sudoeste 14 Sudeste 0 -- -- 85
2020-06-15 09:00:00 21 8 Sudeste 24 Sudeste 0 -- -- 86
2020-06-15 08:00:00 20.4 14 Sur 22 Sur 0 -- -- 91
2020-06-15 07:00:00 20.4 5 Sur 27 Oeste 0 -- -- 93
2020-06-15 06:00:00 20.6 3 Norte 29 Nordeste 0.8 -- -- 93
2020-06-15 05:00:00 21.3 5 Sur 28 Oeste 1.2 -- -- 91
2020-06-15 04:00:00 22.4 10 Este 18 Nordeste 0.6 -- -- 72
2020-06-15 03:00:00 21 3 Sur 30 Sudeste 0 -- -- 81
2020-06-15 02:00:00 21.3 3 Sudeste 9 Sur 0 -- -- 77
2020-06-15 01:00:00 21.1 3 Este 18 Noroeste 0 -- -- 77
2020-06-15 00:00:00 21.2 7 Norte 11 Noroeste 0 -- -- 80